createdAt,value
2018-02-21T00:01:28.273Z,70.50
2018-02-21T00:02:28.196Z,67.90
2018-02-21T00:04:21.464Z,65.70
2018-02-21T00:05:21.368Z,64.90
2018-02-21T00:07:14.748Z,67.40
2018-02-21T00:08:14.538Z,70.80
2018-02-21T00:10:07.778Z,71.70
2018-02-21T00:11:07.707Z,71.50
2018-02-21T00:13:00.969Z,65.30
2018-02-21T00:14:00.874Z,67.00
2018-02-21T00:15:54.120Z,67.60
2018-02-21T00:16:54.047Z,69.00
2018-02-21T00:18:47.302Z,70.80
2018-02-21T00:19:47.207Z,68.00
2018-02-21T00:21:40.456Z,70.50
2018-02-21T00:22:40.377Z,67.40
2018-02-21T00:24:33.642Z,64.30
2018-02-21T00:25:33.547Z,69.10
2018-02-21T00:27:26.815Z,74.50
2018-02-21T00:28:26.718Z,72.10
2018-02-21T00:30:20.078Z,71.70
2018-02-21T00:31:19.879Z,77.90
2018-02-21T00:33:13.150Z,71.60
2018-02-21T00:34:13.061Z,72.10
2018-02-21T00:36:06.411Z,69.20
2018-02-21T00:37:06.338Z,70.10
2018-02-21T00:38:59.598Z,67.10
2018-02-21T00:39:59.506Z,69.00
2018-02-21T00:41:52.753Z,67.10
2018-02-21T00:42:52.678Z,74.80
2018-02-21T00:44:45.933Z,71.70
2018-02-21T00:45:45.838Z,70.70
2018-02-21T00:47:39.106Z,71.20
2018-02-21T00:48:39.012Z,70.10
2018-02-21T00:50:32.368Z,73.90
2018-02-21T00:51:32.174Z,71.20
2018-02-21T00:53:25.443Z,69.80
2018-02-21T00:54:25.344Z,74.40
2018-02-21T00:56:18.706Z,73.30
2018-02-21T00:57:18.516Z,77.50
2018-02-21T00:59:11.786Z,75.70
2018-02-21T01:00:11.687Z,67.80
2018-02-21T01:02:04.932Z,73.90
2018-02-21T01:03:04.857Z,75.50
2018-02-21T01:04:58.122Z,71.50
2018-02-21T01:05:58.030Z,71.90
2018-02-21T01:07:51.295Z,70.90
2018-02-21T01:08:51.202Z,69.60
2018-02-21T01:10:44.438Z,74.00
2018-02-21T01:11:44.357Z,77.70
2018-02-21T01:13:37.628Z,73.20
2018-02-21T01:14:37.539Z,75.50
2018-02-21T01:16:30.783Z,75.30
2018-02-21T01:17:30.711Z,73.80
2018-02-21T01:19:23.973Z,74.80
2018-02-21T01:20:23.874Z,74.20
2018-02-21T01:22:17.124Z,70.90
2018-02-21T01:23:17.049Z,74.00
2018-02-21T01:25:10.314Z,74.50
2018-02-21T01:26:10.220Z,71.20
2018-02-21T01:28:03.492Z,81.90
2018-02-21T01:29:03.394Z,76.20
2018-02-21T01:30:56.639Z,75.00
2018-02-21T01:31:56.564Z,76.10
2018-02-21T01:33:49.834Z,74.90
2018-02-21T01:34:49.734Z,74.30
2018-02-21T01:36:42.981Z,75.60
2018-02-21T01:37:42.905Z,76.80
2018-02-21T01:39:36.170Z,71.20
2018-02-21T01:40:36.075Z,74.40
2018-02-21T01:42:29.397Z,74.60
2018-02-21T01:43:29.328Z,76.40
2018-02-21T01:45:22.595Z,76.50
2018-02-21T01:46:22.499Z,76.60
2018-02-21T01:48:15.763Z,75.70
2018-02-21T01:49:15.667Z,75.50
2018-02-21T01:51:08.920Z,80.30
2018-02-21T01:52:08.838Z,76.50
2018-02-21T01:54:02.216Z,79.70
2018-02-21T01:55:02.008Z,75.50
2018-02-21T01:56:55.375Z,73.50
2018-02-21T01:57:55.164Z,75.10
2018-02-21T01:59:48.547Z,79.20
2018-02-21T02:00:48.332Z,79.10
2018-02-21T02:02:41.587Z,81.40
2018-02-21T02:03:41.513Z,79.50
2018-02-21T02:05:34.777Z,75.20
2018-02-21T02:06:34.688Z,78.30
2018-02-21T02:08:27.947Z,74.50
2018-02-21T02:09:27.860Z,74.30
2018-02-21T02:11:21.099Z,75.70
2018-02-21T02:12:21.024Z,76.10
2018-02-21T02:14:14.289Z,71.80
2018-02-21T02:15:14.196Z,77.20
2018-02-21T02:17:07.441Z,76.50
2018-02-21T02:18:07.365Z,80.80
2018-02-21T02:20:00.624Z,80.20
2018-02-21T02:21:00.528Z,82.80
2018-02-21T02:22:53.782Z,76.30
2018-02-21T02:23:53.703Z,78.40
2018-02-21T02:25:46.969Z,74.10
2018-02-21T02:26:46.876Z,76.90
2018-02-21T02:28:40.134Z,79.00
2018-02-21T02:29:40.047Z,76.40
2018-02-21T02:31:33.404Z,83.30
2018-02-21T02:32:33.327Z,79.90
2018-02-21T02:34:26.593Z,78.10
2018-02-21T02:35:26.499Z,79.10
2018-02-21T02:37:19.743Z,77.10
2018-02-21T02:38:19.672Z,82.90
2018-02-21T02:40:12.925Z,79.20
2018-02-21T02:41:12.848Z,77.00
2018-02-21T02:43:06.192Z,73.20
2018-02-21T02:44:06.002Z,78.30
2018-02-21T02:45:59.384Z,78.90
2018-02-21T02:46:59.179Z,85.40
2018-02-21T02:48:52.445Z,81.40
2018-02-21T02:49:52.343Z,78.30
2018-02-21T02:51:45.703Z,82.20
2018-02-21T02:52:45.514Z,78.30
2018-02-21T02:54:38.779Z,80.60
2018-02-21T02:55:38.684Z,81.20
2018-02-21T02:57:31.931Z,83.20
2018-02-21T02:58:31.860Z,84.10
2018-02-21T03:00:25.111Z,88.00
2018-02-21T03:01:25.019Z,79.80
2018-02-21T03:03:18.378Z,77.10
2018-02-21T03:04:18.190Z,79.30
2018-02-21T03:06:11.461Z,80.30
2018-02-21T03:07:11.362Z,80.00
2018-02-21T03:09:04.626Z,81.90
2018-02-21T03:10:04.532Z,80.20
2018-02-21T03:11:57.778Z,79.50
2018-02-21T03:12:57.704Z,78.50
2018-02-21T03:14:50.966Z,81.50
2018-02-21T03:15:50.871Z,81.90
2018-02-21T03:17:44.119Z,81.00
2018-02-21T03:18:44.043Z,77.20
2018-02-21T03:20:37.297Z,76.90
2018-02-21T03:21:37.202Z,78.90
2018-02-21T03:23:30.451Z,79.20
2018-02-21T03:24:30.372Z,80.10
2018-02-21T03:26:23.640Z,80.70
2018-02-21T03:27:23.546Z,81.30
2018-02-21T03:29:16.928Z,79.10
2018-02-21T03:30:16.718Z,82.00
2018-02-21T03:32:10.079Z,78.20
2018-02-21T03:33:09.886Z,78.70
2018-02-21T03:35:03.152Z,78.30
2018-02-21T03:36:03.056Z,82.70
2018-02-21T03:37:56.400Z,78.00
2018-02-21T03:38:56.327Z,83.20
2018-02-21T03:40:49.707Z,82.90
2018-02-21T03:41:49.496Z,76.50
2018-02-21T03:43:42.857Z,79.60
2018-02-21T03:44:42.668Z,77.50
2018-02-21T03:46:35.929Z,74.80
2018-02-21T03:47:35.839Z,76.00
2018-02-21T03:49:29.105Z,77.80
2018-02-21T03:50:29.011Z,72.60
2018-02-21T03:52:22.370Z,79.00
2018-02-21T03:53:22.185Z,75.50
2018-02-21T03:55:15.560Z,72.30
2018-02-21T03:56:15.350Z,83.90
2018-02-21T03:58:08.596Z,76.30
2018-02-21T03:59:08.522Z,71.80
2018-02-21T04:01:01.900Z,72.20
2018-02-21T04:02:01.693Z,79.80
2018-02-21T04:03:54.946Z,78.30
2018-02-21T04:04:54.865Z,74.30
2018-02-21T04:06:48.130Z,72.70
2018-02-21T04:07:48.038Z,75.20
2018-02-21T04:09:41.317Z,73.60
2018-02-21T04:10:41.222Z,74.60
2018-02-21T04:12:34.465Z,76.10
2018-02-21T04:13:34.392Z,78.70
2018-02-21T04:15:27.659Z,79.00
2018-02-21T04:16:27.568Z,76.20
2018-02-21T04:18:20.923Z,79.00
2018-02-21T04:19:20.734Z,79.20
2018-02-21T04:21:14.114Z,72.10
2018-02-21T04:22:13.907Z,74.00
2018-02-21T04:24:07.154Z,76.40
2018-02-21T04:25:07.077Z,72.30
2018-02-21T04:27:00.426Z,74.00
2018-02-21T04:28:00.329Z,70.70
2018-02-21T04:29:53.586Z,78.40
2018-02-21T04:30:53.491Z,73.10
2018-02-21T04:32:46.850Z,70.70
2018-02-21T04:33:46.662Z,71.90
2018-02-21T04:35:39.931Z,73.90
2018-02-21T04:36:39.834Z,72.80
2018-02-21T04:38:33.087Z,71.00
2018-02-21T04:39:33.002Z,73.80
2018-02-21T04:41:26.266Z,71.70
2018-02-21T04:42:26.172Z,74.40
2018-02-21T04:44:19.534Z,71.40
2018-02-21T04:45:19.344Z,69.10
2018-02-21T04:47:12.721Z,73.00
2018-02-21T04:48:12.513Z,75.90
2018-02-21T04:50:05.773Z,74.40
2018-02-21T04:51:05.678Z,71.40
2018-02-21T04:52:58.925Z,70.10
2018-02-21T04:53:58.848Z,71.00
2018-02-21T04:55:52.112Z,71.80
2018-02-21T04:56:52.021Z,78.30
2018-02-21T04:58:45.375Z,67.20
2018-02-21T04:59:45.189Z,74.00
2018-02-21T05:01:38.452Z,68.50
2018-02-21T05:02:38.357Z,65.80
2018-02-21T05:04:31.719Z,76.40
2018-02-21T05:05:31.527Z,80.80
2018-02-21T05:07:24.793Z,69.80
2018-02-21T05:08:24.698Z,72.30
2018-02-21T05:10:17.956Z,74.70
2018-02-21T05:11:17.860Z,68.90
2018-02-21T05:13:11.106Z,71.60
2018-02-21T05:14:11.028Z,68.60
2018-02-21T05:16:04.407Z,76.70
2018-02-21T05:17:04.201Z,71.40
2018-02-21T05:18:57.454Z,72.70
2018-02-21T05:19:57.372Z,71.30
2018-02-21T05:21:50.640Z,73.80
2018-02-21T05:22:50.545Z,68.10
2018-02-21T05:24:43.788Z,74.40
2018-02-21T05:25:43.714Z,73.60
2018-02-21T05:27:36.978Z,75.10
2018-02-21T05:28:36.882Z,70.90
2018-02-21T05:30:30.255Z,68.00
2018-02-21T05:31:30.049Z,68.00
2018-02-21T05:33:23.404Z,64.10
2018-02-21T05:34:23.328Z,73.40
2018-02-21T05:36:16.593Z,70.90
2018-02-21T05:37:16.521Z,70.90
2018-02-21T05:39:09.855Z,71.10
2018-02-21T05:40:09.650Z,71.70
2018-02-21T05:42:02.910Z,66.50
2018-02-21T05:43:02.814Z,69.40
2018-02-21T05:44:56.061Z,66.30
2018-02-21T05:45:56.023Z,70.60
2018-02-21T05:47:49.283Z,75.80
2018-02-21T05:48:49.188Z,74.30
2018-02-21T05:50:42.441Z,72.20
2018-02-21T05:51:42.345Z,67.40
2018-02-21T05:53:36.581Z,70.60
2018-02-21T05:54:36.504Z,71.30
2018-02-21T05:56:29.885Z,77.00
2018-02-21T05:57:29.661Z,77.70
2018-02-21T05:59:22.898Z,70.80
2018-02-21T06:00:22.821Z,71.60
2018-02-21T06:02:16.076Z,67.30
2018-02-21T06:03:15.978Z,70.10
2018-02-21T06:05:09.272Z,74.60
2018-02-21T06:06:09.168Z,71.80
2018-02-21T06:08:02.373Z,70.60
2018-02-21T06:09:02.295Z,76.40
2018-02-21T06:10:55.551Z,71.20
2018-02-21T06:11:55.457Z,70.00
2018-02-21T06:13:48.694Z,70.70
2018-02-21T06:14:48.616Z,71.50
2018-02-21T06:16:41.867Z,67.30
2018-02-21T06:17:41.772Z,71.00
2018-02-21T06:19:35.132Z,72.30
2018-02-21T06:20:34.930Z,78.50
2018-02-21T06:22:28.184Z,79.90
2018-02-21T06:23:28.090Z,71.50
2018-02-21T06:25:21.434Z,70.00
2018-02-21T06:26:21.336Z,74.00
2018-02-21T06:28:14.578Z,75.10
2018-02-21T06:29:14.495Z,73.30
2018-02-21T06:31:07.750Z,70.00
2018-02-21T06:32:07.697Z,71.20
2018-02-21T06:34:00.887Z,74.40
2018-02-21T06:35:00.811Z,69.60
2018-02-21T06:36:55.063Z,68.10
2018-02-21T06:37:55.020Z,73.80
2018-02-21T06:39:48.203Z,76.40
2018-02-21T06:40:48.126Z,67.00
2018-02-21T06:42:41.431Z,75.60
2018-02-21T06:43:41.331Z,72.60
2018-02-21T06:45:34.710Z,69.20
2018-02-21T06:46:34.500Z,70.60
2018-02-21T06:48:27.736Z,71.30
2018-02-21T06:49:27.661Z,70.70
2018-02-21T06:51:21.039Z,74.70
2018-02-21T06:52:20.833Z,73.50
2018-02-21T06:54:14.062Z,69.90
2018-02-21T06:55:13.985Z,69.90
2018-02-21T06:57:07.255Z,70.60
2018-02-21T06:58:07.150Z,68.20
2018-02-21T07:00:01.410Z,80.00
2018-02-21T07:01:01.331Z,72.40
2018-02-21T07:02:54.586Z,68.50
2018-02-21T07:03:54.489Z,70.50
2018-02-21T07:05:47.740Z,64.80
2018-02-21T07:06:47.647Z,68.40
2018-02-21T07:08:40.883Z,66.50
2018-02-21T07:09:40.803Z,66.90
2018-02-21T07:11:34.069Z,66.50
2018-02-21T07:12:33.972Z,69.10
2018-02-21T07:14:27.209Z,68.80
2018-02-21T07:15:27.176Z,67.70
2018-02-21T07:17:20.385Z,62.50
2018-02-21T07:18:20.291Z,65.10
2018-02-21T07:20:14.526Z,66.10
2018-02-21T07:21:14.448Z,68.40
2018-02-21T07:23:07.701Z,65.20
2018-02-21T07:24:07.611Z,64.50
2018-02-21T07:26:00.989Z,67.30
2018-02-21T07:27:00.773Z,66.80
2018-02-21T07:28:54.011Z,69.30
2018-02-21T07:29:53.940Z,67.90
2018-02-21T07:31:47.190Z,66.10
2018-02-21T07:32:47.093Z,64.70
2018-02-21T07:34:41.403Z,62.80
2018-02-21T07:35:41.328Z,70.30
2018-02-21T07:37:34.586Z,61.70
2018-02-21T07:38:34.487Z,64.90
2018-02-21T07:40:27.721Z,68.00
2018-02-21T07:41:27.645Z,61.50
2018-02-21T07:43:20.917Z,59.70
2018-02-21T07:44:20.823Z,65.50
2018-02-21T07:46:13.701Z,62.90
2018-02-21T07:47:13.505Z,61.90
2018-02-21T07:49:07.741Z,60.60
2018-02-21T07:50:07.662Z,66.10
2018-02-21T07:52:00.924Z,56.70
2018-02-21T07:53:00.826Z,63.60
2018-02-21T07:54:54.062Z,60.90
2018-02-21T07:55:54.059Z,60.60
2018-02-21T07:57:47.240Z,65.00
2018-02-21T07:58:47.220Z,65.90
2018-02-21T08:00:40.384Z,55.60
2018-02-21T08:01:40.327Z,56.10
2018-02-21T08:03:34.583Z,59.40
2018-02-21T08:04:34.482Z,59.20
2018-02-21T08:06:28.857Z,57.80
2018-02-21T08:07:28.649Z,58.80
2018-02-21T08:09:21.892Z,57.50
2018-02-21T08:10:21.818Z,55.50
2018-02-21T08:12:15.088Z,58.40
2018-02-21T08:13:15.020Z,61.10
2018-02-21T08:15:08.225Z,55.20
2018-02-21T08:16:08.157Z,56.30
2018-02-21T08:18:01.427Z,52.90
2018-02-21T08:19:01.332Z,53.80
2018-02-21T08:20:54.580Z,55.00
2018-02-21T08:21:54.536Z,51.20
2018-02-21T08:23:47.886Z,57.40
2018-02-21T08:24:47.674Z,55.20
2018-02-21T08:26:41.068Z,56.30
2018-02-21T08:27:40.841Z,56.70
2018-02-21T08:29:34.082Z,48.90
2018-02-21T08:30:34.010Z,51.40
2018-02-21T08:32:27.263Z,58.50
2018-02-21T08:33:27.168Z,55.50
2018-02-21T08:35:20.435Z,51.20
2018-02-21T08:36:20.360Z,53.50
2018-02-21T08:38:13.617Z,49.30
2018-02-21T08:39:13.519Z,53.40
2018-02-21T08:41:06.776Z,54.60
2018-02-21T08:42:06.700Z,50.60
2018-02-21T08:43:59.958Z,54.70
2018-02-21T08:44:59.863Z,50.50
2018-02-21T08:46:53.134Z,52.70
2018-02-21T08:47:53.042Z,54.50
2018-02-21T08:49:46.274Z,49.00
2018-02-21T08:50:46.201Z,48.60
2018-02-21T08:52:39.470Z,51.20
2018-02-21T08:53:39.379Z,53.80
2018-02-21T08:55:32.619Z,50.60
2018-02-21T08:56:32.545Z,50.00
2018-02-21T08:58:25.928Z,52.80
2018-02-21T08:59:25.718Z,47.20
2018-02-21T09:01:18.982Z,43.30
2018-02-21T09:02:18.909Z,47.90
2018-02-21T09:04:12.172Z,44.80
2018-02-21T09:05:12.079Z,48.50
2018-02-21T09:07:05.431Z,44.70
2018-02-21T09:08:05.334Z,51.40
2018-02-21T09:09:58.578Z,48.40
2018-02-21T09:10:58.545Z,49.20
2018-02-21T09:12:51.891Z,48.40
2018-02-21T09:13:51.711Z,53.20
2018-02-21T09:15:44.950Z,50.10
2018-02-21T09:16:44.875Z,49.60
2018-02-21T09:18:38.144Z,50.20
2018-02-21T09:19:38.045Z,50.60
2018-02-21T09:21:31.460Z,46.10
2018-02-21T09:22:31.338Z,49.30
2018-02-21T09:24:24.614Z,47.20
2018-02-21T09:25:24.523Z,47.80
2018-02-21T09:27:17.940Z,46.30
2018-02-21T09:28:17.704Z,46.10
2018-02-21T09:30:10.951Z,46.40
2018-02-21T09:31:10.884Z,50.20
2018-02-21T09:33:04.147Z,48.90
2018-02-21T09:34:04.061Z,48.90
2018-02-21T09:35:57.314Z,49.20
2018-02-21T09:36:57.283Z,48.10
2018-02-21T09:38:50.628Z,51.10
2018-02-21T09:39:50.416Z,45.40
2018-02-21T09:41:43.674Z,49.20
2018-02-21T09:42:43.616Z,45.00
2018-02-21T09:44:36.874Z,45.40
2018-02-21T09:45:36.782Z,47.70
2018-02-21T09:47:30.072Z,47.90
2018-02-21T09:48:29.961Z,45.00
2018-02-21T09:50:23.330Z,45.10
2018-02-21T09:51:23.150Z,46.00
2018-02-21T09:53:16.422Z,41.30
2018-02-21T09:54:16.334Z,45.50
2018-02-21T09:56:09.700Z,45.00
2018-02-21T09:57:09.529Z,45.50
2018-02-21T09:59:02.786Z,45.10
2018-02-21T10:00:02.696Z,48.30
2018-02-21T10:01:56.065Z,49.00
2018-02-21T10:02:55.877Z,44.20
2018-02-21T10:04:49.246Z,43.00
2018-02-21T10:05:49.056Z,46.40
2018-02-21T10:07:42.321Z,43.70
2018-02-21T10:08:42.237Z,45.30
2018-02-21T10:10:35.490Z,45.50
2018-02-21T10:11:35.422Z,45.20
2018-02-21T10:13:28.688Z,40.70
2018-02-21T10:14:28.600Z,44.40
2018-02-21T10:16:21.849Z,47.30
2018-02-21T10:17:21.777Z,42.50
2018-02-21T10:19:15.171Z,38.50
2018-02-21T10:20:14.962Z,38.20
2018-02-21T10:22:08.215Z,42.70
2018-02-21T10:23:08.139Z,43.00
2018-02-21T10:25:01.427Z,41.50
2018-02-21T10:26:01.340Z,41.90
2018-02-21T10:27:54.609Z,45.40
2018-02-21T10:28:54.519Z,44.90
2018-02-21T10:30:47.771Z,42.70
2018-02-21T10:31:47.701Z,44.80
2018-02-21T10:33:40.971Z,43.70
2018-02-21T10:34:40.883Z,41.40
2018-02-21T10:36:34.133Z,49.70
2018-02-21T10:37:34.061Z,45.20
2018-02-21T10:39:27.429Z,48.70
2018-02-21T10:40:27.344Z,44.70
2018-02-21T10:42:20.602Z,42.90
2018-02-21T10:43:20.534Z,42.60
2018-02-21T10:45:13.805Z,42.10
2018-02-21T10:46:13.722Z,41.70
2018-02-21T10:48:06.989Z,46.40
2018-02-21T10:49:06.902Z,42.80
2018-02-21T10:51:00.271Z,48.40
2018-02-21T10:52:00.096Z,45.50
2018-02-21T10:53:53.434Z,37.90
2018-02-21T10:54:53.342Z,42.10
2018-02-21T10:56:46.602Z,39.70
2018-02-21T10:57:46.523Z,40.30
2018-02-21T10:59:39.800Z,41.60
2018-02-21T11:00:39.704Z,38.00
2018-02-21T11:02:32.956Z,41.80
2018-02-21T11:03:32.887Z,41.40
2018-02-21T11:05:26.155Z,39.40
2018-02-21T11:06:26.067Z,43.20
2018-02-21T11:08:20.186Z,39.20
2018-02-21T11:09:20.098Z,40.20
2018-02-21T11:11:13.407Z,39.10
2018-02-21T11:12:13.343Z,38.30
2018-02-21T11:14:06.610Z,30.80
2018-02-21T11:15:06.523Z,35.50
2018-02-21T11:16:59.772Z,39.40
2018-02-21T11:17:59.760Z,37.10
2018-02-21T11:19:53.089Z,33.00
2018-02-21T11:20:52.889Z,37.10
2018-02-21T11:22:46.150Z,39.20
2018-02-21T11:23:46.127Z,36.30
2018-02-21T11:25:39.471Z,36.30
2018-02-21T11:26:39.345Z,37.10
2018-02-21T11:28:32.608Z,33.40
2018-02-21T11:29:32.566Z,37.30
2018-02-21T11:31:25.887Z,33.40
2018-02-21T11:32:25.695Z,32.20
2018-02-21T11:34:18.963Z,35.40
2018-02-21T11:35:18.870Z,30.30
2018-02-21T11:37:12.125Z,34.60
2018-02-21T11:38:12.048Z,31.70
2018-02-21T11:40:05.453Z,33.20
2018-02-21T11:41:05.339Z,34.30
2018-02-21T11:42:58.677Z,34.40
2018-02-21T11:43:58.602Z,32.10
2018-02-21T11:45:51.877Z,28.30
2018-02-21T11:46:51.777Z,30.40
2018-02-21T11:48:45.051Z,31.80
2018-02-21T11:49:44.960Z,30.80
2018-02-21T11:51:39.211Z,32.90
2018-02-21T11:52:39.133Z,31.00
2018-02-21T11:54:32.396Z,32.90
2018-02-21T11:55:32.304Z,35.00
2018-02-21T11:57:25.668Z,28.70
2018-02-21T11:58:25.477Z,28.60
2018-02-21T12:00:18.860Z,32.30
2018-02-21T12:01:18.649Z,29.10
2018-02-21T12:03:11.893Z,33.10
2018-02-21T12:04:11.822Z,33.70
2018-02-21T12:06:05.204Z,33.90
2018-02-21T12:07:05.012Z,29.10
2018-02-21T12:08:58.294Z,34.50
2018-02-21T12:09:58.203Z,31.20
2018-02-21T12:11:51.447Z,31.10
2018-02-21T12:12:51.377Z,32.40
2018-02-21T12:14:44.640Z,32.10
2018-02-21T12:15:44.547Z,31.00
2018-02-21T12:17:37.794Z,29.40
2018-02-21T12:18:37.717Z,28.70
2018-02-21T12:20:31.103Z,32.40
2018-02-21T12:21:30.892Z,32.70
2018-02-21T12:23:24.138Z,31.30
2018-02-21T12:24:24.069Z,31.60
2018-02-21T12:26:17.429Z,35.20
2018-02-21T12:27:17.338Z,33.60
2018-02-21T12:29:10.603Z,29.40
2018-02-21T12:30:10.508Z,30.50
2018-02-21T12:32:03.752Z,31.00
2018-02-21T12:33:03.679Z,30.50
2018-02-21T12:34:56.954Z,32.90
2018-02-21T12:35:56.850Z,31.50
2018-02-21T12:37:50.096Z,31.90
2018-02-21T12:38:50.026Z,31.70
2018-02-21T12:40:43.347Z,32.50
2018-02-21T12:41:43.201Z,31.10
2018-02-21T12:43:36.445Z,31.10
2018-02-21T12:44:36.371Z,28.20
2018-02-21T12:46:29.633Z,29.50
2018-02-21T12:47:29.544Z,27.40
2018-02-21T12:49:22.821Z,32.70
2018-02-21T12:50:22.730Z,32.90
2018-02-21T12:52:15.974Z,29.60
2018-02-21T12:53:15.953Z,31.90
2018-02-21T12:55:09.166Z,32.00
2018-02-21T12:56:09.075Z,33.60
2018-02-21T12:58:02.320Z,30.30
2018-02-21T12:59:02.244Z,29.80
2018-02-21T13:00:55.634Z,31.20
2018-02-21T13:01:55.418Z,30.20
2018-02-21T13:03:49.664Z,32.80
2018-02-21T13:04:49.591Z,29.40
2018-02-21T13:06:43.976Z,31.00
2018-02-21T13:07:43.764Z,30.90
2018-02-21T13:09:38.033Z,28.90
2018-02-21T13:10:37.939Z,31.30
2018-02-21T13:12:31.303Z,29.00
2018-02-21T13:13:31.112Z,30.00
2018-02-21T13:15:24.374Z,29.60
2018-02-21T13:16:24.280Z,31.50
2018-02-21T13:18:17.534Z,32.70
2018-02-21T13:19:17.460Z,29.60
2018-02-21T13:21:10.743Z,26.40
2018-02-21T13:22:10.629Z,30.20
2018-02-21T13:24:03.874Z,32.30
2018-02-21T13:25:03.800Z,32.90
2018-02-21T13:26:57.182Z,29.70
2018-02-21T13:27:56.973Z,29.60
2018-02-21T13:29:50.357Z,33.10
2018-02-21T13:30:50.145Z,32.80
2018-02-21T13:32:44.390Z,33.80
2018-02-21T13:33:44.318Z,32.60
2018-02-21T13:35:37.578Z,30.20
2018-02-21T13:36:37.484Z,29.40
2018-02-21T13:38:30.729Z,30.10
2018-02-21T13:39:30.659Z,33.80
2018-02-21T13:41:24.044Z,29.60
2018-02-21T13:42:23.829Z,27.60
2018-02-21T13:44:17.075Z,32.80
2018-02-21T13:45:16.995Z,31.20
2018-02-21T13:47:10.266Z,32.60
2018-02-21T13:48:10.174Z,29.50
2018-02-21T13:50:03.433Z,29.40
2018-02-21T13:51:03.348Z,29.00
2018-02-21T13:52:56.586Z,32.10
2018-02-21T13:53:56.513Z,32.00
2018-02-21T13:55:49.789Z,34.30
2018-02-21T13:56:49.700Z,32.40
2018-02-21T13:58:42.944Z,32.40
2018-02-21T13:59:42.860Z,32.90
2018-02-21T14:01:36.251Z,30.50
2018-02-21T14:02:36.037Z,29.20
2018-02-21T14:04:29.412Z,30.20
2018-02-21T14:05:29.338Z,28.70
2018-02-21T14:07:22.600Z,28.80
2018-02-21T14:08:22.508Z,32.40
2018-02-21T14:10:15.915Z,29.50
2018-02-21T14:11:15.679Z,28.10
2018-02-21T14:13:08.923Z,30.00
2018-02-21T14:14:08.850Z,29.20
2018-02-21T14:16:02.112Z,28.30
2018-02-21T14:17:02.020Z,26.90
2018-02-21T14:18:55.385Z,28.60
2018-02-21T14:19:55.190Z,28.50
2018-02-21T14:21:48.455Z,29.30
2018-02-21T14:22:48.361Z,30.80
2018-02-21T14:24:41.604Z,28.50
2018-02-21T14:25:41.531Z,29.50
2018-02-21T14:27:34.796Z,31.30
2018-02-21T14:28:34.706Z,24.90
2018-02-21T14:30:27.966Z,27.80
2018-02-21T14:31:27.877Z,27.40
2018-02-21T14:33:21.120Z,26.80
2018-02-21T14:34:21.051Z,28.20
2018-02-21T14:36:14.431Z,27.50
2018-02-21T14:37:14.218Z,23.80
2018-02-21T14:39:07.470Z,27.60
2018-02-21T14:40:07.383Z,27.50
2018-02-21T14:42:00.771Z,27.20
2018-02-21T14:43:00.555Z,23.50
2018-02-21T14:44:53.798Z,25.70
2018-02-21T14:45:53.726Z,27.80
2018-02-21T14:47:47.112Z,25.00
2018-02-21T14:48:46.898Z,30.70
2018-02-21T14:50:40.164Z,27.10
2018-02-21T14:51:40.069Z,27.20
2018-02-21T14:53:33.432Z,25.40
2018-02-21T14:54:33.335Z,25.20
2018-02-21T14:56:26.601Z,28.60
2018-02-21T14:57:26.508Z,28.80
2018-02-21T14:59:19.749Z,31.30
2018-02-21T15:00:19.675Z,27.70
2018-02-21T15:02:12.940Z,29.00
2018-02-21T15:03:12.851Z,24.30
2018-02-21T15:05:06.210Z,31.10
2018-02-21T15:06:06.016Z,26.10
2018-02-21T15:07:59.278Z,27.70
2018-02-21T15:08:59.185Z,28.10
2018-02-21T15:10:52.571Z,25.50
2018-02-21T15:11:52.359Z,25.60
2018-02-21T15:13:45.601Z,26.90
2018-02-21T15:14:45.598Z,28.60
2018-02-21T15:16:38.787Z,26.40
2018-02-21T15:17:38.690Z,27.50
2018-02-21T15:19:31.952Z,26.60
2018-02-21T15:20:31.878Z,24.50
2018-02-21T15:22:25.137Z,26.10
2018-02-21T15:23:25.055Z,25.90
2018-02-21T15:25:18.290Z,29.60
2018-02-21T15:26:18.214Z,27.90
2018-02-21T15:28:11.479Z,29.60
2018-02-21T15:29:11.386Z,28.20
2018-02-21T15:31:04.767Z,25.50
2018-02-21T15:32:04.553Z,26.30
2018-02-21T15:33:57.796Z,31.70
2018-02-21T15:34:57.720Z,30.00
2018-02-21T15:36:50.982Z,29.40
2018-02-21T15:37:50.890Z,31.10
2018-02-21T15:39:44.132Z,28.30
2018-02-21T15:40:44.059Z,28.50
2018-02-21T15:42:37.434Z,27.90
2018-02-21T15:43:37.342Z,26.70
2018-02-21T15:45:30.582Z,27.00
2018-02-21T15:46:30.508Z,26.30
2018-02-21T15:48:23.769Z,29.00
2018-02-21T15:49:23.674Z,29.30
2018-02-21T15:51:16.936Z,28.10
2018-02-21T15:52:16.914Z,30.30
2018-02-21T15:54:10.086Z,27.00
2018-02-21T15:55:10.018Z,27.40
2018-02-21T15:57:03.396Z,28.50
2018-02-21T15:58:03.179Z,28.90
2018-02-21T15:59:56.423Z,26.80
2018-02-21T16:00:56.350Z,28.40
2018-02-21T16:02:49.608Z,26.30
2018-02-21T16:03:49.517Z,25.40
2018-02-21T16:05:42.761Z,26.70
2018-02-21T16:06:42.682Z,28.50
2018-02-21T16:08:35.946Z,26.80
2018-02-21T16:09:35.854Z,28.10
2018-02-21T16:11:29.112Z,26.60
2018-02-21T16:12:29.021Z,29.10
2018-02-21T16:14:22.262Z,28.90
2018-02-21T16:15:22.190Z,28.50
2018-02-21T16:17:15.574Z,26.40
2018-02-21T16:18:15.358Z,29.40
2018-02-21T16:20:08.601Z,28.30
2018-02-21T16:21:08.525Z,29.80
2018-02-21T16:23:01.793Z,26.80
2018-02-21T16:24:01.701Z,27.50
2018-02-21T16:25:54.942Z,27.60
2018-02-21T16:26:54.869Z,27.00
2018-02-21T16:28:48.133Z,29.60
2018-02-21T16:29:48.041Z,27.80
2018-02-21T16:31:41.428Z,27.40
2018-02-21T16:32:41.340Z,28.40
2018-02-21T16:34:34.574Z,29.80
2018-02-21T16:35:34.500Z,30.40
2018-02-21T16:37:27.761Z,25.80
2018-02-21T16:38:27.666Z,26.70
2018-02-21T16:40:20.909Z,26.80
2018-02-21T16:41:20.838Z,25.50
2018-02-21T16:43:14.097Z,25.90
2018-02-21T16:44:14.004Z,25.10
2018-02-21T16:46:07.246Z,23.90
2018-02-21T16:47:07.174Z,24.60
2018-02-21T16:49:00.433Z,25.60
2018-02-21T16:50:00.338Z,26.00
2018-02-21T16:51:53.598Z,25.90
2018-02-21T16:52:53.505Z,28.80
2018-02-21T16:54:46.777Z,24.60
2018-02-21T16:55:46.702Z,26.00
2018-02-21T16:57:39.959Z,27.20
2018-02-21T16:58:39.865Z,29.10
2018-02-21T17:00:33.109Z,26.60
2018-02-21T17:01:33.036Z,26.30
2018-02-21T17:03:26.297Z,28.00
2018-02-21T17:04:26.202Z,26.50
2018-02-21T17:06:19.445Z,25.40
2018-02-21T17:07:19.370Z,25.50
2018-02-21T17:09:12.626Z,23.90
2018-02-21T17:10:12.534Z,23.90
2018-02-21T17:12:05.863Z,27.20
2018-02-21T17:13:05.716Z,26.50
2018-02-21T17:14:58.952Z,23.80
2018-02-21T17:15:58.877Z,24.10
2018-02-21T17:17:52.181Z,24.90
2018-02-21T17:18:52.042Z,24.10
2018-02-21T17:20:45.469Z,27.00
2018-02-21T17:21:45.353Z,27.30
2018-02-21T17:23:38.614Z,27.90
2018-02-21T17:24:38.518Z,29.10
2018-02-21T17:26:31.758Z,28.00
2018-02-21T17:27:31.682Z,27.20
2018-02-21T17:29:24.945Z,26.50
2018-02-21T17:30:24.883Z,31.00
2018-02-21T17:32:18.110Z,27.90
2018-02-21T17:33:18.014Z,28.10
2018-02-21T17:35:11.375Z,28.00
2018-02-21T17:36:11.178Z,29.20
2018-02-21T17:38:04.442Z,30.80
2018-02-21T17:39:04.347Z,31.30
2018-02-21T17:40:57.707Z,29.10
2018-02-21T17:41:57.514Z,27.40
2018-02-21T17:43:50.767Z,31.60
2018-02-21T17:44:50.680Z,32.00
2018-02-21T17:46:44.076Z,30.40
2018-02-21T17:47:43.845Z,26.70
2018-02-21T17:49:37.091Z,29.80
2018-02-21T17:50:37.019Z,32.50
2018-02-21T17:52:30.288Z,30.90
2018-02-21T17:53:30.193Z,28.10
2018-02-21T17:55:23.444Z,31.00
2018-02-21T17:56:23.369Z,29.60
2018-02-21T17:58:16.638Z,27.50
2018-02-21T17:59:16.545Z,29.70
2018-02-21T18:01:09.796Z,28.30
2018-02-21T18:02:09.722Z,29.50
2018-02-21T18:04:02.993Z,28.00
2018-02-21T18:05:02.900Z,27.60
2018-02-21T18:06:56.263Z,26.70
2018-02-21T18:07:56.070Z,28.00
2018-02-21T18:09:49.433Z,28.50
2018-02-21T18:10:49.340Z,29.90
2018-02-21T18:12:42.597Z,30.50
2018-02-21T18:13:42.503Z,28.10
2018-02-21T18:15:35.742Z,26.70
2018-02-21T18:16:35.665Z,27.50
2018-02-21T18:18:28.928Z,29.20
2018-02-21T18:19:28.829Z,29.40
2018-02-21T18:21:22.068Z,27.60
2018-02-21T18:22:21.989Z,27.90
2018-02-21T18:24:15.250Z,27.50
2018-02-21T18:25:15.157Z,27.10
2018-02-21T18:27:08.540Z,29.80
2018-02-21T18:28:08.321Z,25.90
2018-02-21T18:30:01.575Z,27.90
2018-02-21T18:31:01.501Z,29.20
2018-02-21T18:32:54.803Z,27.50
2018-02-21T18:33:54.664Z,28.10
2018-02-21T18:35:47.902Z,30.80